Terminal Aerodrome Forecast
Issued by NWS Louisville, KY

Home | Current Version | Previous Version | Text Only | Print | Product List | Glossary On
Versions: 1 2 3 4 5 6 7 8 9 10 11 12 13 14 15 16 17 18 19 20 21 22 23 24 25 26 27 28
000
FTUS43 KLMK 010900 AAB
TAFSDF
TAF AMD
KSDF 010903Z 0109/0212 VRB05KT P6SM FEW035 BKN250
      TEMPO 0111/0113 5SM BR
     FM011700 29006KT P6SM BKN040
     FM012000 25006KT P6SM VCTS BKN040CB=

USA.gov is the U.S. government's official web portal to all federal, state and local government web resources and services.